Latest Weather Observations for Skiway South*

IDT60801

Issued at 8:02 am EDT Tuesday 24 January 2017 (issued every 30 minutes, with the page automatically refreshed every 10 minutes)

About weather observations | Map of weather stations | Latest weather observations for ANT | Other Formats
Station Details ID: 300060 Name: CASEY SKIWAY SOUTH Lat: -66.28 Lon: 110.76 Height: 390.0 m
Data from the previous 72 hours. | See also: Recent months for locations in Antarctica
Date/Time
EDT
Temp
°C
App
Temp
°C
Dew
Point
°C
Rel
Hum
%
Delta-T
°C
Wind Press
QNH
hPa
Press
MSL
hPa
Rain since
9am
mm
Dir  Spd
km/h
Gust
km/h
Spd
kts
Gust
kts
24/07:31am -9.7 -18.4 -15.6 62 1.0 E 28 32 15 17 984.2 - -
24/07:30am -9.7 -18.4 -15.6 62 1.0 E 28 30 15 16 984.1 - -
24/07:01am -9.5 -18.2 -15.6 61 1.0 E 28 32 15 17 984.0 - -
24/07:00am -9.6 -18.3 -15.5 62 0.9 E 28 32 15 17 983.8 - -
24/06:31am -10.2 -19.3 -16.1 62 0.9 E 30 33 16 18 983.7 - -
24/06:30am -10.4 -19.5 -16.4 61 0.9 E 30 33 16 18 983.7 - -
24/06:01am -10.3 -18.7 -16.5 60 0.9 E 26 28 14 15 983.6 - -
24/06:00am -10.2 -17.3 -16.5 60 1.0 E 19 26 10 14 983.5 - -
24/05:31am -8.0 -14.3 -17.5 46 1.7 ESE 15 20 8 11 983.6 - -
24/05:30am -8.6 -14.5 -16.7 52 1.4 E 13 19 7 10 983.6 - -
24/05:13am -10.2 -16.1 -15.7 64 0.9 E 13 - 7 - - - -
24/05:01am -9.2 -15.0 -15.1 62 1.0 E 13 17 7 9 983.5 - -
24/05:00am -9.8 -16.4 -14.2 70 0.7 E 17 22 9 12 983.5 - -
24/04:31am -11.1 -18.3 -14.8 74 0.5 E 20 22 11 12 983.2 - -
24/04:30am -11.0 -18.0 -14.9 73 0.5 E 19 20 10 11 983.2 - -
24/04:01am -10.4 -16.9 -14.1 74 0.5 ENE 17 19 9 10 983.2 - -
24/04:00am -10.5 -17.1 -14.4 73 0.5 ENE 17 19 9 10 983.1 - -
24/03:31am -10.3 -17.2 -14.0 74 0.5 E 19 20 10 11 983.1 - -
24/03:30am -10.0 -16.9 -13.9 73 0.6 E 19 20 10 11 983.1 - -
24/03:01am -9.6 -16.5 -13.3 74 0.5 ENE 19 22 10 12 983.0 - -
24/03:00am -9.6 -16.7 -13.3 74 0.5 ENE 20 22 11 12 982.9 - -
24/02:31am -9.5 -16.6 -13.1 75 0.5 E 20 22 11 12 983.0 - -
24/02:30am -9.3 -16.3 -12.7 76 0.5 E 20 22 11 12 982.9 - -
24/02:13am -9.3 -16.1 -11.9 81 0.3 E 19 - 10 - - - -
24/02:01am -9.5 -15.2 -12.1 81 0.3 E 13 15 7 8 983.0 - -
24/02:00am -8.9 -14.1 -11.4 82 0.3 E 11 13 6 7 982.9 - -
24/01:31am -7.7 -12.6 -11.5 74 0.7 ENE 9 9 5 5 983.0 - -
24/01:30am -7.2 -11.7 -11.4 72 0.8 ENE 7 9 4 5 983.1 - -
24/01:01am -6.5 -11.3 -11.0 70 0.9 ENE 9 9 5 5 983.1 - -
24/01:00am -5.9 -10.7 -10.6 69 1.0 ENE 9 9 5 5 983.2 - -
24/12:31am -5.6 -10.0 -10.7 67 1.1 ENE 7 7 4 4 983.3 - -
24/12:30am -5.2 -9.6 -10.5 66 1.2 ENE 7 7 4 4 983.3 - -
24/12:01am -3.9 -7.7 -10.3 61 1.6 NE 4 4 2 2 983.4 - -
24/12:00am -3.6 -7.4 -10.2 60 1.6 NNE 4 4 2 2 983.4 - -
 
Date/Time
EDT
Temp
°C
App
Temp
°C
Dew
Point
°C
Rel
Hum
%
Delta-T
°C
Wind Press
QNH
hPa
Press
MSL
hPa
Rain since
9am
mm
Dir  Spd
km/h
Gust
km/h
Spd
kts
Gust
kts
23/11:31pm -2.3 -6.5 -9.9 56 2.0 NE 6 6 3 3 983.4 - -
23/11:30pm -1.6 -5.4 -10.1 52 2.3 NE 4 6 2 3 983.4 - -
23/11:13pm -0.4 -4.2 -9.8 49 2.7 NE 4 - 2 - - - -
23/11:01pm 0.2 -3.2 -9.8 47 2.9 NNE 2 2 1 1 983.5 - -
23/11:00pm 0.0 -3.4 -9.7 48 2.8 NNE 2 4 1 2 983.5 - -
23/10:31pm 0.0 -3.8 -9.4 49 2.7 NNE 4 4 2 2 983.5 - -
23/10:30pm -0.2 -4.0 -9.3 50 2.6 NE 4 4 2 2 983.5 - -
23/10:01pm 0.1 -3.7 -9.6 48 2.8 NE 4 4 2 2 983.4 - -
23/09:31pm 0.8 -2.2 -9.8 45 3.1 CALM 0 2 0 1 983.5 - -
23/09:30pm 1.1 -1.9 -9.5 45 3.2 CALM 0 0 0 0 983.4 - -
23/09:01pm 1.4 -1.9 -8.4 48 3.0 NE 2 2 1 1 983.5 - -
23/09:00pm 1.0 -2.0 -9.9 44 3.2 CALM 0 2 0 1 983.6 - -
23/08:31pm -0.3 -3.7 -9.2 51 2.6 NW 2 4 1 2 983.8 - -
23/08:30pm -0.4 -3.8 -9.5 50 2.6 WNW 2 4 1 2 984.0 - -
23/08:13pm 0.1 -3.6 -8.1 54 2.5 W 4 - 2 - - - -
23/08:01pm -0.2 -4.3 -8.8 52 2.5 W 6 6 3 3 984.2 - -
23/08:00pm 0.5 -3.0 -10.3 44 3.2 W 2 6 1 3 984.3 - -
23/07:31pm -0.3 -3.7 -10.2 47 2.8 WSW 2 4 1 2 984.4 - -
23/07:30pm 0.3 -3.1 -9.9 46 2.9 WSW 2 4 1 2 984.4 - -
23/07:01pm 2.0 -1.4 -9.2 43 3.5 W 2 4 1 2 984.6 - -
23/07:00pm 2.6 -0.8 -9.3 41 3.7 W 2 4 1 2 984.6 - -
23/06:31pm 2.7 -1.0 -8.3 44 3.5 W 4 4 2 2 984.8 - -
23/06:30pm 2.6 -0.7 -8.1 45 3.5 W 2 4 1 2 984.9 - -
23/06:01pm 0.3 -3.1 -9.1 49 2.8 WNW 2 4 1 2 984.9 - -
23/06:00pm -0.3 -4.1 -9.4 50 2.6 NW 4 6 2 3 984.9 - -
23/05:31pm 2.5 -1.3 -5.4 56 2.8 W 6 7 3 4 985.0 - -
23/05:30pm 2.1 -1.7 -5.5 57 2.6 W 6 6 3 3 985.0 - -
23/05:13pm 3.3 -0.5 -5.8 51 3.0 W 6 - 3 - - - -
23/05:01pm 2.9 -0.5 -5.2 55 2.7 W 4 7 2 4 985.2 - -
23/05:00pm 2.5 -0.9 -5.6 55 2.8 W 4 6 2 3 985.2 - -
23/04:31pm 1.3 -2.6 -6.7 55 2.6 WSW 6 6 3 3 985.3 - -
23/04:30pm 2.3 -1.5 -5.6 56 2.7 W 6 7 3 4 985.5 - -
23/04:01pm 4.9 1.8 -6.0 45 3.6 W 2 4 1 2 985.6 - -
23/04:00pm 2.8 -0.3 -5.8 53 3.0 WNW 2 4 1 2 985.7 - -
23/03:31pm 4.3 1.3 -5.2 50 3.2 N 2 4 1 2 985.9 - -
23/03:30pm 3.9 0.9 -5.3 51 3.1 NNW 2 4 1 2 985.9 - -
23/03:01pm 3.8 0.4 -5.1 52 3.0 N 4 6 2 3 986.0 - -
23/03:00pm 3.9 0.5 -5.3 51 3.1 NNE 4 6 2 3 986.1 - -
23/02:31pm 3.5 0.1 -5.4 52 3.0 N 4 6 2 3 986.2 - -
23/02:30pm 3.4 0.4 -5.5 52 3.0 N 2 6 1 3 986.2 - -
23/02:13pm 3.2 0.2 -5.0 55 2.8 NNE 2 - 1 - - - -
23/02:01pm 2.0 -1.8 -5.2 59 2.5 NE 6 6 3 3 986.3 - -
23/02:00pm 1.2 -2.6 -5.5 61 2.3 NE 6 9 3 5 986.3 - -
23/01:31pm -0.4 -5.2 -6.4 64 1.9 NE 11 13 6 7 986.3 - -
23/01:30pm -0.6 -5.4 -6.3 65 1.8 NE 11 13 6 7 986.4 - -
23/01:01pm -1.5 -7.1 -6.1 71 1.4 NE 15 17 8 9 986.5 - -
23/01:00pm -1.6 -7.6 -6.2 71 1.4 NE 17 19 9 10 986.6 - -
23/12:31pm -2.3 -8.6 -6.1 75 1.1 NE 19 22 10 12 986.6 - -
23/12:30pm -2.4 -8.7 -6.2 75 1.1 NE 19 22 10 12 986.7 - -
23/12:01pm -2.6 -9.1 -6.2 76 1.0 NE 20 22 11 12 986.9 - -
23/12:00pm -2.7 -9.2 -6.2 77 1.0 NE 20 22 11 12 986.9 - -
23/11:31am -3.3 -9.8 -6.2 80 0.7 NE 20 24 11 13 987.0 - -
23/11:30am -3.4 -9.9 -6.3 80 0.7 NE 20 24 11 13 987.0 - -
23/11:01am -3.4 -9.9 -6.3 80 0.7 NE 20 22 11 12 987.1 - -
23/11:00am -3.4 -9.9 -6.2 81 0.7 NE 20 22 11 12 987.2 - -
23/10:31am -3.4 -9.4 -6.2 81 0.7 NE 17 20 9 11 987.4 - -
23/10:30am -3.6 -9.6 -6.4 81 0.7 NE 17 19 9 10 987.4 - -
23/10:01am -2.7 -8.3 -6.7 74 1.1 NNE 15 15 8 8 987.6 - -
23/10:00am -2.2 -7.4 -6.7 71 1.3 NNE 13 15 7 8 987.6 - -
23/09:31am -1.3 -5.6 -5.1 75 1.2 N 9 13 5 7 987.8 - -
23/09:30am -1.3 -5.6 -5.0 76 1.1 N 9 11 5 6 987.9 - -
23/09:01am -1.7 -5.6 -4.5 81 0.8 N 7 11 4 6 988.0 - -
23/09:00am -1.8 -5.7 -4.6 81 0.8 N 7 11 4 6 988.2 - -
23/08:31am -2.1 -6.4 -4.7 82 0.7 NNW 9 13 5 7 988.4 - -
23/08:30am -2.1 -6.4 -4.7 82 0.7 NNW 9 13 5 7 988.4 - -
23/08:00am -2.3 -7.0 -4.8 83 0.7 NNW 11 17 6 9 988.5 - -
23/07:30am -2.4 -6.3 -4.7 84 0.6 NNW 7 11 4 6 989.0 - -
23/07:23am -2.3 -6.0 -4.3 86 0.5 N 6 7 3 4 989.0 - -
23/07:19am -2.3 -6.0 -4.3 86 0.5 N 6 7 3 4 989.0 - -
23/07:00am -2.3 -5.6 -4.0 88 0.5 N 4 6 2 3 989.3 - -
23/06:30am -2.3 -5.5 -3.7 90 0.4 N 4 6 2 3 989.7 - -
23/06:00am -2.4 -5.2 -3.7 91 0.3 NNW 2 4 1 2 990.2 - -
23/05:30am -2.5 -5.3 -3.6 92 0.3 E 2 6 1 3 990.6 - -
23/05:00am -3.0 -6.9 -4.4 90 0.3 ESE 7 9 4 5 990.8 - -
23/04:30am -3.0 -6.9 -4.4 90 0.3 E 7 9 4 5 991.1 - -
23/04:00am -2.6 -5.4 -3.6 93 0.2 SSW 2 7 1 4 991.4 - -
23/03:30am -2.3 -5.5 -3.1 94 0.2 W 4 6 2 3 991.8 - -
23/03:00am -2.2 -5.3 -3.0 94 0.2 W 4 6 2 3 991.9 - -
23/02:30am -2.2 -5.0 -3.0 94 0.2 W 2 6 1 3 992.2 - -
23/02:00am -2.2 -5.0 -3.0 94 0.2 ENE 2 4 1 2 992.7 - -
23/01:30am -2.4 -5.6 -3.4 93 0.2 NNW 4 4 2 2 992.8 - -
23/01:16am -2.4 -6.0 -3.4 93 0.2 NNW 6 9 3 5 993.0 - -
23/01:11am -2.4 -6.0 -3.4 93 0.2 NNW 6 9 3 5 993.0 - -
23/01:00am -2.2 -6.3 -3.2 93 0.2 N 9 11 5 6 993.1 - -
23/12:30am -2.0 -5.7 -3.1 92 0.3 N 7 11 4 6 993.2 - -
23/12:00am -1.5 -5.6 -2.9 90 0.4 N 9 9 5 5 993.4 - -
 
Date/Time
EDT
Temp
°C
App
Temp
°C
Dew
Point
°C
Rel
Hum
%
Delta-T
°C
Wind Press
QNH
hPa
Press
MSL
hPa
Rain since
9am
mm
Dir  Spd
km/h
Gust
km/h
Spd
kts
Gust
kts
22/11:30pm -0.7 -4.7 -2.3 89 0.5 NNE 9 11 5 6 993.5 - -
22/11:00pm -0.6 -4.2 -2.2 89 0.5 N 7 9 4 5 993.8 - -
22/10:30pm -1.0 -5.0 -2.6 89 0.5 NE 9 11 5 6 994.2 - -
22/10:00pm -0.1 -4.1 -2.6 83 0.9 NNE 9 13 5 7 994.2 - -
22/09:30pm 2.8 -0.5 -1.5 73 1.6 N 6 7 3 4 994.4 - -
22/09:00pm 3.9 1.8 -1.1 70 1.9 CALM 0 2 0 1 994.5 - -
22/08:30pm 3.1 0.6 -1.1 74 1.6 S 2 4 1 2 994.4 - -
22/08:04pm 1.9 -0.6 -1.0 81 1.1 S 2 4 1 2 994.6 - -
22/08:00pm 2.0 -0.1 -0.7 82 1.0 CALM 0 4 0 2 994.6 - -
22/07:59pm 1.9 -0.2 -1.0 81 1.1 CALM 0 4 0 2 994.6 - -
22/07:46pm 1.8 -1.1 -1.3 80 1.1 S 4 6 2 3 994.7 - -
22/07:41pm 1.8 -1.1 -1.3 80 1.1 S 4 6 2 3 994.7 - -
22/07:30pm 1.8 -1.5 -0.9 82 1.0 S 6 6 3 3 994.6 - -
22/07:11pm 1.3 -3.0 -1.3 83 0.9 S 11 13 6 7 994.6 - -
22/07:06pm 1.3 -3.0 -1.3 83 0.9 S 11 13 6 7 994.6 - -
22/07:00pm 1.3 -2.5 -1.1 84 0.9 S 9 11 5 6 994.7 - -
22/06:40pm 0.7 -4.0 -1.5 85 0.8 S 13 15 7 8 994.7 - -
22/06:30pm 0.9 -3.8 -1.5 84 0.9 S 13 15 7 8 994.7 - -
22/06:00pm 0.8 -3.2 -2.1 81 1.1 S 9 15 5 8 994.6 - -
22/05:30pm 1.4 -3.5 -0.8 85 0.8 S 15 19 8 10 994.5 - -
22/05:00pm 0.2 -5.6 -1.7 87 0.7 S 19 20 10 11 994.4 - -
22/04:30pm 0.2 -4.5 -1.7 87 0.7 SSW 13 17 7 9 994.4 - -
22/04:00pm 0.6 -4.1 -1.9 83 0.9 WSW 13 17 7 9 994.3 - -
22/03:30pm 2.1 -1.1 -0.5 83 1.0 SSE 6 9 3 5 994.4 - -
22/03:00pm -0.2 -5.3 -1.8 89 0.6 S 15 20 8 11 994.4 - -
22/02:41pm -0.5 -5.3 -2.2 88 0.6 S 13 20 7 11 994.1 - -
22/02:36pm -0.5 -5.3 -2.2 88 0.6 S 13 20 7 11 994.1 - -
22/02:30pm -0.9 -5.7 -2.5 89 0.5 SSW 13 20 7 11 994.2 - -
22/02:12pm -0.4 -5.6 -2.4 86 0.7 S 15 32 8 17 993.9 - -
22/02:07pm -0.4 -5.6 -2.4 86 0.7 S 15 32 8 17 993.9 - -
22/02:00pm -1.0 -7.0 -2.7 88 0.5 S 19 20 10 11 994.0 - -
22/01:40pm -0.5 -4.5 -2.5 86 0.7 SW 9 15 5 8 994.0 - -
22/01:39pm -0.7 -4.8 -2.7 86 0.7 SW 9 17 5 9 994.1 - -
22/01:30pm -0.8 -5.3 -3.0 85 0.7 SW 11 17 6 9 994.1 - -
22/01:00pm 0.9 -2.9 -3.9 70 1.7 SSE 7 15 4 8 994.1 - -
22/12:30pm -0.9 -5.4 -3.3 84 0.8 WSW 11 15 6 8 994.0 - -
22/12:12pm 0.5 -4.6 -5.1 66 1.9 SSE 13 20 7 11 994.0 - -
22/12:00pm 0.4 -5.9 -5.6 64 2.0 ENE 19 32 10 17 993.7 - -
22/11:53am 0.2 -7.0 -5.4 66 1.8 E 24 33 13 18 993.6 - -
22/11:30am -0.4 -9.7 -5.2 70 1.5 E 35 50 19 27 993.3 - -
22/11:07am -0.7 -10.6 -3.9 79 1.0 E 39 57 21 31 993.1 - -
22/11:06am -0.9 -11.2 -4.2 78 1.0 E 41 57 22 31 993.0 - -
22/11:01am -0.9 -10.8 -4.2 78 1.0 E 39 57 21 31 993.0 - -
22/11:00am -1.0 -11.4 -4.7 76 1.2 E 41 57 22 31 993.0 - -
22/10:43am -0.8 -9.6 -4.5 76 1.2 E 33 52 18 28 992.9 - -
22/10:30am -1.1 -11.5 -4.6 77 1.1 E 41 57 22 31 992.5 - -
22/10:03am -0.6 -12.0 -5.4 70 1.5 E 46 65 25 35 992.0 - -
22/10:00am -0.6 -12.7 -5.4 70 1.5 E 50 65 27 35 991.8 - -
22/09:30am -0.4 -13.0 -6.2 65 1.8 E 52 70 28 38 991.6 - -
22/09:00am -0.3 -14.2 -6.1 65 1.8 E 59 78 32 42 990.8 - -
22/08:34am -0.4 -14.3 -5.8 67 1.7 E 59 83 32 45 990.3 - -
22/08:30am -0.4 -14.7 -5.6 68 1.6 E 61 91 33 49 990.2 - -
22/08:29am -0.4 -14.3 -5.8 67 1.7 E 59 83 32 45 990.3 - -
22/08:00am -0.4 -15.1 -5.8 67 1.7 E 63 78 34 42 990.5 - -
22/07:30am -0.4 -15.4 -5.8 67 1.7 E 65 76 35 41 990.2 - -
22/07:00am -0.3 -15.7 -5.9 66 1.8 E 67 82 36 44 989.9 - -
22/06:32am -0.3 -15.4 -5.9 66 1.8 E 65 83 35 45 989.5 - -
22/06:30am -0.3 -15.3 -5.7 67 1.7 E 65 83 35 45 989.5 - -
22/06:08am -0.4 -15.8 -5.8 67 1.7 E 67 85 36 46 989.3 - -
22/06:03am -0.4 -15.8 -5.8 67 1.7 E 67 85 36 46 989.3 - -
22/06:00am -0.4 -15.8 -5.8 67 1.7 E 67 83 36 45 989.3 - -
22/05:30am -0.4 -15.8 -6.0 66 1.8 E 67 82 36 44 989.3 - -
22/05:00am -0.4 -15.1 -5.8 67 1.7 E 63 80 34 43 989.0 - -
22/04:52am -0.3 -15.3 -5.7 67 1.7 E 65 89 35 48 988.8 - -
22/04:47am -0.3 -15.3 -5.7 67 1.7 E 65 89 35 48 988.8 - -
22/04:30am -0.2 -14.8 -5.6 67 1.7 E 63 76 34 41 989.1 - -
22/04:03am -0.2 -15.6 -5.8 66 1.8 E 67 85 36 46 988.5 - -
22/04:00am -0.1 -15.5 -5.5 67 1.7 E 67 85 36 46 988.4 - -
22/03:58am -0.2 -15.6 -5.8 66 1.8 E 67 85 36 46 988.5 - -
22/03:32am -0.1 -15.1 -5.5 67 1.7 E 65 83 35 45 988.5 - -
22/03:30am -0.1 -15.5 -5.7 66 1.8 E 67 80 36 43 988.5 - -
22/03:06am -0.1 -15.5 -5.3 68 1.7 E 67 85 36 46 988.0 - -
22/03:01am -0.1 -15.5 -5.3 68 1.7 E 67 85 36 46 988.0 - -
22/03:00am -0.1 -15.8 -5.3 68 1.7 E 69 85 37 46 988.5 - -
22/02:30am -0.1 -15.1 -5.7 66 1.8 E 65 80 35 43 988.5 - -
22/02:00am 0.0 -14.6 -5.4 67 1.8 E 63 78 34 42 988.3 - -
22/01:30am 0.0 -15.4 -5.6 66 1.8 E 67 80 36 43 988.0 - -
22/01:00am -0.1 -15.5 -5.5 67 1.7 E 67 80 36 43 988.0 - -
22/12:41am 0.0 -15.0 -5.4 67 1.7 E 65 83 35 45 987.6 - -
22/12:37am 0.0 -15.0 -5.2 68 1.7 E 65 83 35 45 987.7 - -
22/12:30am 0.0 -15.4 -5.4 67 1.7 E 67 80 36 43 987.6 - -
22/12:02am 0.0 -15.8 -5.6 66 1.8 E 69 87 37 47 986.9 - -
22/12:00am 0.1 -15.7 -5.5 66 1.8 E 69 82 37 44 987.0 - -
 
Date/Time
EDT
Temp
°C
App
Temp
°C
Dew
Point
°C
Rel
Hum
%
Delta-T
°C
Wind Press
QNH
hPa
Press
MSL
hPa
Rain since
9am
mm
Dir  Spd
km/h
Gust
km/h
Spd
kts
Gust
kts
21/11:34pm -0.1 -17.2 -5.5 67 1.7 E 76 95 41 51 986.1 - -
21/11:30pm -0.1 -17.2 -5.5 67 1.7 E 76 95 41 51 986.0 - -
21/11:08pm -0.1 -18.5 -5.3 68 1.7 E 83 102 45 55 985.2 - -
21/11:03pm -0.1 -18.5 -5.3 68 1.7 E 83 102 45 55 985.2 - -
21/11:00pm -0.2 -19.0 -5.4 68 1.7 E 85 102 46 55 984.8 - -
21/10:30pm 0.0 -20.0 -5.6 66 1.8 E 91 113 49 61 984.2 - -
21/10:16pm 0.0 -19.5 -5.2 68 1.7 E 89 107 48 58 983.7 - -
21/10:11pm 0.0 -19.5 -5.2 68 1.7 E 89 107 48 58 983.7 - -
21/10:00pm -0.1 -20.4 -5.1 69 1.6 E 93 106 50 57 983.2 - -
21/09:30pm 0.2 -19.3 -5.0 68 1.7 E 89 106 48 57 983.5 - -
21/09:00pm 0.1 -19.8 -4.7 70 1.6 E 91 107 49 58 983.4 - -
21/08:36pm 0.3 -19.2 -4.9 68 1.7 E 89 107 48 58 983.4 - -
21/08:30pm 0.3 -19.2 -4.9 68 1.7 E 89 107 48 58 983.7 - -
21/08:25pm 0.3 -19.2 -4.9 68 1.7 E 89 107 48 58 983.2 - -
21/08:16pm 0.3 -19.2 -4.9 68 1.7 E 89 107 48 58 983.6 - -
21/08:00pm 0.3 -20.0 -4.9 68 1.8 E 93 106 50 57 982.9 - -
21/07:52pm 0.3 -19.6 -4.9 68 1.7 E 91 109 49 59 983.0 - -
21/07:47pm 0.3 -19.6 -4.9 68 1.7 E 91 109 49 59 983.0 - -
21/07:30pm 0.2 -19.3 -4.6 70 1.6 E 89 106 48 57 983.2 - -

Other Formats:

Comma delimited format used in spreadsheet applications
http://www.bom.gov.au/fwo/IDT60803/IDT60803.89809.axf

JavaScript Object Notation format (JSON) in row-major order
http://www.bom.gov.au/fwo/IDT60803/IDT60803.89809.json